sensor_id;sensor_type;location;lat;lon;timestamp;temperature;humidity
66096;SHT31;53861;53.422;14.530;2022-09-17T00:00:22;11.22;91.63
66096;SHT31;53861;53.422;14.530;2022-09-17T00:02:50;11.20;91.52
66096;SHT31;53861;53.422;14.530;2022-09-17T00:05:21;11.33;91.14
66096;SHT31;53861;53.422;14.530;2022-09-17T00:07:49;11.37;91.25
66096;SHT31;53861;53.422;14.530;2022-09-17T00:10:17;11.44;90.93
66096;SHT31;53861;53.422;14.530;2022-09-17T00:12:45;11.46;90.74
66096;SHT31;53861;53.422;14.530;2022-09-17T00:15:15;11.57;90.88
66096;SHT31;53861;53.422;14.530;2022-09-17T00:17:42;11.53;90.10
66096;SHT31;53861;53.422;14.530;2022-09-17T00:20:09;11.57;90.56
66096;SHT31;53861;53.422;14.530;2022-09-17T00:22:37;11.60;90.71
66096;SHT31;53861;53.422;14.530;2022-09-17T00:25:06;11.43;90.04
66096;SHT31;53861;53.422;14.530;2022-09-17T00:27:34;11.46;90.51
66096;SHT31;53861;53.422;14.530;2022-09-17T00:30:04;11.51;90.59
66096;SHT31;53861;53.422;14.530;2022-09-17T00:32:43;11.39;90.56
66096;SHT31;53861;53.422;14.530;2022-09-17T00:35:10;11.30;90.32
66096;SHT31;53861;53.422;14.530;2022-09-17T00:37:37;11.41;91.15
66096;SHT31;53861;53.422;14.530;2022-09-17T00:40:05;11.37;90.78
66096;SHT31;53861;53.422;14.530;2022-09-17T00:42:33;11.39;90.91
66096;SHT31;53861;53.422;14.530;2022-09-17T00:45:00;11.26;90.89
66096;SHT31;53861;53.422;14.530;2022-09-17T00:47:29;11.26;91.20
66096;SHT31;53861;53.422;14.530;2022-09-17T00:50:00;11.26;90.94
66096;SHT31;53861;53.422;14.530;2022-09-17T00:52:32;11.18;90.97
66096;SHT31;53861;53.422;14.530;2022-09-17T00:55:05;11.18;91.22
66096;SHT31;53861;53.422;14.530;2022-09-17T00:57:34;11.06;90.88
66096;SHT31;53861;53.422;14.530;2022-09-17T01:00:03;10.92;91.11
66096;SHT31;53861;53.422;14.530;2022-09-17T01:02:31;10.91;92.21
66096;SHT31;53861;53.422;14.530;2022-09-17T01:05:00;10.88;91.86
66096;SHT31;53861;53.422;14.530;2022-09-17T01:07:38;10.76;91.63
66096;SHT31;53861;53.422;14.530;2022-09-17T01:10:18;10.71;92.15
66096;SHT31;53861;53.422;14.530;2022-09-17T01:13:01;10.72;91.76
66096;SHT31;53861;53.422;14.530;2022-09-17T01:15:35;10.69;91.92
66096;SHT31;53861;53.422;14.530;2022-09-17T01:18:17;10.78;92.58
66096;SHT31;53861;53.422;14.530;2022-09-17T01:21:32;10.68;91.74
66096;SHT31;53861;53.422;14.530;2022-09-17T01:24:21;10.72;92.11
66096;SHT31;53861;53.422;14.530;2022-09-17T01:30:00;10.61;91.81
66096;SHT31;53861;53.422;14.530;2022-09-17T01:32:37;10.64;91.79
66096;SHT31;53861;53.422;14.530;2022-09-17T01:35:11;10.71;92.23
66096;SHT31;53861;53.422;14.530;2022-09-17T01:37:50;10.69;92.16
66096;SHT31;53861;53.422;14.530;2022-09-17T01:40:23;10.79;91.97
66096;SHT31;53861;53.422;14.530;2022-09-17T01:42:55;10.73;91.21
66096;SHT31;53861;53.422;14.530;2022-09-17T01:45:29;10.93;91.70
66096;SHT31;53861;53.422;14.530;2022-09-17T01:48:03;10.93;91.30
66096;SHT31;53861;53.422;14.530;2022-09-17T01:50:37;10.99;91.41
66096;SHT31;53861;53.422;14.530;2022-09-17T01:53:09;11.00;91.39
66096;SHT31;53861;53.422;14.530;2022-09-17T01:55:39;11.10;90.75
66096;SHT31;53861;53.422;14.530;2022-09-17T01:58:12;11.12;91.39
66096;SHT31;53861;53.422;14.530;2022-09-17T02:00:43;11.23;90.89
66096;SHT31;53861;53.422;14.530;2022-09-17T02:03:19;11.23;90.55
66096;SHT31;53861;53.422;14.530;2022-09-17T02:05:50;11.31;90.33
66096;SHT31;53861;53.422;14.530;2022-09-17T02:08:22;11.23;89.61
66096;SHT31;53861;53.422;14.530;2022-09-17T02:10:54;11.36;90.39
66096;SHT31;53861;53.422;14.530;2022-09-17T02:13:28;11.34;90.01
66096;SHT31;53861;53.422;14.530;2022-09-17T02:16:01;11.37;89.59
66096;SHT31;53861;53.422;14.530;2022-09-17T02:18:37;11.33;90.46
66096;SHT31;53861;53.422;14.530;2022-09-17T02:21:10;11.36;90.99
66096;SHT31;53861;53.422;14.530;2022-09-17T02:23:49;11.39;90.43
66096;SHT31;53861;53.422;14.530;2022-09-17T02:26:19;11.43;90.29
66096;SHT31;53861;53.422;14.530;2022-09-17T02:28:50;11.46;90.98
66096;SHT31;53861;53.422;14.530;2022-09-17T02:31:20;11.51;90.78
66096;SHT31;53861;53.422;14.530;2022-09-17T02:33:57;11.53;91.15
66096;SHT31;53861;53.422;14.530;2022-09-17T02:36:26;11.50;90.99
66096;SHT31;53861;53.422;14.530;2022-09-17T02:38:57;11.63;90.85
66096;SHT31;53861;53.422;14.530;2022-09-17T02:41:35;11.64;91.29
66096;SHT31;53861;53.422;14.530;2022-09-17T02:44:13;11.73;90.41
66096;SHT31;53861;53.422;14.530;2022-09-17T02:46:59;11.81;90.88
66096;SHT31;53861;53.422;14.530;2022-09-17T02:49:53;11.77;91.45
66096;SHT31;53861;53.422;14.530;2022-09-17T02:52:33;11.80;91.26
66096;SHT31;53861;53.422;14.530;2022-09-17T02:55:11;11.88;91.02
66096;SHT31;53861;53.422;14.530;2022-09-17T02:57:46;11.94;91.19
66096;SHT31;53861;53.422;14.530;2022-09-17T03:00:20;12.02;90.35
66096;SHT31;53861;53.422;14.530;2022-09-17T03:02:52;11.97;90.80
66096;SHT31;53861;53.422;14.530;2022-09-17T03:05:23;12.01;91.54
66096;SHT31;53861;53.422;14.530;2022-09-17T03:07:51;11.98;90.76
66096;SHT31;53861;53.422;14.530;2022-09-17T03:10:20;12.06;91.33
66096;SHT31;53861;53.422;14.530;2022-09-17T03:12:47;12.12;90.85
66096;SHT31;53861;53.422;14.530;2022-09-17T03:15:14;12.12;90.78
66096;SHT31;53861;53.422;14.530;2022-09-17T03:17:42;11.99;90.94
66096;SHT31;53861;53.422;14.530;2022-09-17T03:20:09;12.12;90.80
66096;SHT31;53861;53.422;14.530;2022-09-17T03:22:37;12.17;91.14
66096;SHT31;53861;53.422;14.530;2022-09-17T03:25:05;12.22;91.88
66096;SHT31;53861;53.422;14.530;2022-09-17T03:27:32;12.22;91.76
66096;SHT31;53861;53.422;14.530;2022-09-17T03:30:27;12.24;91.04
66096;SHT31;53861;53.422;14.530;2022-09-17T03:33:20;12.22;92.02
66096;SHT31;53861;53.422;14.530;2022-09-17T03:35:47;12.24;91.28
66096;SHT31;53861;53.422;14.530;2022-09-17T03:38:16;12.26;91.49
66096;SHT31;53861;53.422;14.530;2022-09-17T03:40:43;12.22;91.40
66096;SHT31;53861;53.422;14.530;2022-09-17T03:43:10;12.32;92.12
66096;SHT31;53861;53.422;14.530;2022-09-17T03:45:37;12.35;90.88
66096;SHT31;53861;53.422;14.530;2022-09-17T03:48:04;12.42;91.66
66096;SHT31;53861;53.422;14.530;2022-09-17T03:50:31;12.39;91.22
66096;SHT31;53861;53.422;14.530;2022-09-17T03:52:58;12.35;91.69
66096;SHT31;53861;53.422;14.530;2022-09-17T03:55:27;12.41;91.90
66096;SHT31;53861;53.422;14.530;2022-09-17T03:57:54;12.39;91.76
66096;SHT31;53861;53.422;14.530;2022-09-17T04:00:21;12.39;91.13
66096;SHT31;53861;53.422;14.530;2022-09-17T04:02:50;12.46;91.43
66096;SHT31;53861;53.422;14.530;2022-09-17T04:05:17;12.55;91.70
66096;SHT31;53861;53.422;14.530;2022-09-17T04:07:44;12.53;91.75
66096;SHT31;53861;53.422;14.530;2022-09-17T04:10:11;12.50;91.15
66096;SHT31;53861;53.422;14.530;2022-09-17T04:12:40;12.41;90.98
66096;SHT31;53861;53.422;14.530;2022-09-17T04:15:08;12.42;91.47
66096;SHT31;53861;53.422;14.530;2022-09-17T04:17:35;12.38;91.46
66096;SHT31;53861;53.422;14.530;2022-09-17T04:20:03;12.39;91.80
66096;SHT31;53861;53.422;14.530;2022-09-17T04:22:31;12.41;91.58
66096;SHT31;53861;53.422;14.530;2022-09-17T04:24:58;12.39;91.82
66096;SHT31;53861;53.422;14.530;2022-09-17T04:27:25;12.42;91.56
66096;SHT31;53861;53.422;14.530;2022-09-17T04:29:53;12.42;91.64
66096;SHT31;53861;53.422;14.530;2022-09-17T04:32:20;12.42;91.67
66096;SHT31;53861;53.422;14.530;2022-09-17T04:34:48;12.45;92.11
66096;SHT31;53861;53.422;14.530;2022-09-17T04:37:15;12.41;91.75
66096;SHT31;53861;53.422;14.530;2022-09-17T04:39:42;12.38;91.70
66096;SHT31;53861;53.422;14.530;2022-09-17T04:42:09;12.31;91.39
66096;SHT31;53861;53.422;14.530;2022-09-17T04:44:36;12.26;91.66
66096;SHT31;53861;53.422;14.530;2022-09-17T04:47:05;12.24;92.28
66096;SHT31;53861;53.422;14.530;2022-09-17T04:49:32;12.21;92.01
66096;SHT31;53861;53.422;14.530;2022-09-17T04:52:00;12.17;92.37
66096;SHT31;53861;53.422;14.530;2022-09-17T04:54:27;12.15;92.51
66096;SHT31;53861;53.422;14.530;2022-09-17T04:56:54;12.17;92.75
66096;SHT31;53861;53.422;14.530;2022-09-17T04:59:21;12.11;92.70
66096;SHT31;53861;53.422;14.530;2022-09-17T05:01:48;12.11;92.94
66096;SHT31;53861;53.422;14.530;2022-09-17T05:04:17;12.04;92.99
66096;SHT31;53861;53.422;14.530;2022-09-17T05:06:44;12.06;93.13
66096;SHT31;53861;53.422;14.530;2022-09-17T05:09:11;12.06;93.20
66096;SHT31;53861;53.422;14.530;2022-09-17T05:11:39;12.10;93.31
66096;SHT31;53861;53.422;14.530;2022-09-17T05:14:06;12.18;92.95
66096;SHT31;53861;53.422;14.530;2022-09-17T05:16:34;12.20;93.15
66096;SHT31;53861;53.422;14.530;2022-09-17T05:19:01;12.24;92.98
66096;SHT31;53861;53.422;14.530;2022-09-17T05:21:30;12.29;92.96
66096;SHT31;53861;53.422;14.530;2022-09-17T05:23:57;12.35;92.73
66096;SHT31;53861;53.422;14.530;2022-09-17T05:26:26;12.38;92.31
66096;SHT31;53861;53.422;14.530;2022-09-17T05:28:54;12.45;92.18
66096;SHT31;53861;53.422;14.530;2022-09-17T05:31:21;12.55;92.27
66096;SHT31;53861;53.422;14.530;2022-09-17T05:33:48;12.63;92.45
66096;SHT31;53861;53.422;14.530;2022-09-17T05:36:15;12.66;92.25
66096;SHT31;53861;53.422;14.530;2022-09-17T05:38:44;12.69;92.30
66096;SHT31;53861;53.422;14.530;2022-09-17T05:41:11;12.79;91.82
66096;SHT31;53861;53.422;14.530;2022-09-17T05:43:38;12.67;91.09
66096;SHT31;53861;53.422;14.530;2022-09-17T05:46:05;12.73;91.61
66096;SHT31;53861;53.422;14.530;2022-09-17T05:48:33;12.84;91.84
66096;SHT31;53861;53.422;14.530;2022-09-17T05:51:00;13.00;91.60
66096;SHT31;53861;53.422;14.530;2022-09-17T05:53:27;13.03;90.94
66096;SHT31;53861;53.422;14.530;2022-09-17T05:55:56;13.00;91.49
66096;SHT31;53861;53.422;14.530;2022-09-17T05:58:24;13.08;91.48
66096;SHT31;53861;53.422;14.530;2022-09-17T06:00:52;13.21;91.84
66096;SHT31;53861;53.422;14.530;2022-09-17T06:03:20;13.34;90.82
66096;SHT31;53861;53.422;14.530;2022-09-17T06:05:56;13.47;90.33
66096;SHT31;53861;53.422;14.530;2022-09-17T06:08:25;13.62;90.33
66096;SHT31;53861;53.422;14.530;2022-09-17T06:10:52;13.71;89.94
66096;SHT31;53861;53.422;14.530;2022-09-17T06:13:21;13.64;89.68
66096;SHT31;53861;53.422;14.530;2022-09-17T06:15:49;13.74;90.22
66096;SHT31;53861;53.422;14.530;2022-09-17T06:18:17;13.79;90.20
66096;SHT31;53861;53.422;14.530;2022-09-17T06:20:51;13.92;90.31
66096;SHT31;53861;53.422;14.530;2022-09-17T06:23:20;13.95;89.31
66096;SHT31;53861;53.422;14.530;2022-09-17T06:25:51;14.02;89.22
66096;SHT31;53861;53.422;14.530;2022-09-17T06:28:20;14.06;89.11
66096;SHT31;53861;53.422;14.530;2022-09-17T06:30:48;14.09;88.59
66096;SHT31;53861;53.422;14.530;2022-09-17T06:33:17;14.29;87.81
66096;SHT31;53861;53.422;14.530;2022-09-17T06:35:44;14.90;85.11
66096;SHT31;53861;53.422;14.530;2022-09-17T06:38:12;16.06;82.53
66096;SHT31;53861;53.422;14.530;2022-09-17T06:40:39;15.46;82.96
66096;SHT31;53861;53.422;14.530;2022-09-17T06:43:06;16.04;82.05
66096;SHT31;53861;53.422;14.530;2022-09-17T06:45:35;15.83;83.00
66096;SHT31;53861;53.422;14.530;2022-09-17T06:48:03;17.11;80.33
66096;SHT31;53861;53.422;14.530;2022-09-17T06:50:31;17.28;76.92
66096;SHT31;53861;53.422;14.530;2022-09-17T06:52:58;16.94;79.58
66096;SHT31;53861;53.422;14.530;2022-09-17T06:55:25;16.38;79.41
66096;SHT31;53861;53.422;14.530;2022-09-17T06:57:53;15.82;82.00
66096;SHT31;53861;53.422;14.530;2022-09-17T07:00:20;15.46;82.59
66096;SHT31;53861;53.422;14.530;2022-09-17T07:02:55;15.53;82.02
66096;SHT31;53861;53.422;14.530;2022-09-17T07:05:23;15.90;82.04
66096;SHT31;53861;53.422;14.530;2022-09-17T07:07:50;15.76;80.85
66096;SHT31;53861;53.422;14.530;2022-09-17T07:10:18;15.97;80.86
66096;SHT31;53861;53.422;14.530;2022-09-17T07:12:45;16.95;78.16
66096;SHT31;53861;53.422;14.530;2022-09-17T07:15:12;16.88;76.08
66096;SHT31;53861;53.422;14.530;2022-09-17T07:17:40;17.05;77.38
66096;SHT31;53861;53.422;14.530;2022-09-17T07:20:11;17.38;74.15
66096;SHT31;53861;53.422;14.530;2022-09-17T07:22:39;17.96;75.34
66096;SHT31;53861;53.422;14.530;2022-09-17T07:25:07;19.41;71.46
66096;SHT31;53861;53.422;14.530;2022-09-17T07:27:34;20.36;67.86
66096;SHT31;53861;53.422;14.530;2022-09-17T07:30:05;18.52;72.30
66096;SHT31;53861;53.422;14.530;2022-09-17T07:32:34;17.57;71.65
66096;SHT31;53861;53.422;14.530;2022-09-17T07:35:02;17.05;74.79
66096;SHT31;53861;53.422;14.530;2022-09-17T07:37:30;17.80;70.48
66096;SHT31;53861;53.422;14.530;2022-09-17T07:39:57;19.43;69.18
66096;SHT31;53861;53.422;14.530;2022-09-17T07:42:25;20.59;63.57
66096;SHT31;53861;53.422;14.530;2022-09-17T07:44:55;21.45;61.45
66096;SHT31;53861;53.422;14.530;2022-09-17T07:47:25;22.24;59.54
66096;SHT31;53861;53.422;14.530;2022-09-17T07:49:54;23.24;61.12
66096;SHT31;53861;53.422;14.530;2022-09-17T07:52:21;23.10;57.47
66096;SHT31;53861;53.422;14.530;2022-09-17T07:54:49;22.88;55.50
66096;SHT31;53861;53.422;14.530;2022-09-17T07:57:20;23.32;57.74
66096;SHT31;53861;53.422;14.530;2022-09-17T07:59:47;24.49;53.62
66096;SHT31;53861;53.422;14.530;2022-09-17T08:02:14;22.94;55.68
66096;SHT31;53861;53.422;14.530;2022-09-17T08:04:41;22.35;57.55
66096;SHT31;53861;53.422;14.530;2022-09-17T08:07:10;22.61;62.33
66096;SHT31;53861;53.422;14.530;2022-09-17T08:09:40;22.97;58.01
66096;SHT31;53861;53.422;14.530;2022-09-17T08:12:08;20.91;61.66
66096;SHT31;53861;53.422;14.530;2022-09-17T08:14:35;19.68;66.38
66096;SHT31;53861;53.422;14.530;2022-09-17T08:17:05;18.92;68.12
66096;SHT31;53861;53.422;14.530;2022-09-17T08:19:35;18.65;69.38
66096;SHT31;53861;53.422;14.530;2022-09-17T08:22:03;18.48;69.68
66096;SHT31;53861;53.422;14.530;2022-09-17T08:24:30;18.41;69.78
66096;SHT31;53861;53.422;14.530;2022-09-17T08:26:59;17.80;71.07
66096;SHT31;53861;53.422;14.530;2022-09-17T08:29:27;17.81;72.54
66096;SHT31;53861;53.422;14.530;2022-09-17T08:31:55;17.57;74.88
66096;SHT31;53861;53.422;14.530;2022-09-17T08:34:22;17.76;73.28
66096;SHT31;53861;53.422;14.530;2022-09-17T08:36:49;18.28;72.10
66096;SHT31;53861;53.422;14.530;2022-09-17T08:39:16;19.58;68.56
66096;SHT31;53861;53.422;14.530;2022-09-17T08:41:55;21.65;65.58
66096;SHT31;53861;53.422;14.530;2022-09-17T08:44:36;21.59;62.55
66096;SHT31;53861;53.422;14.530;2022-09-17T08:47:12;20.36;64.96
66096;SHT31;53861;53.422;14.530;2022-09-17T08:49:47;18.81;67.91
66096;SHT31;53861;53.422;14.530;2022-09-17T08:52:36;18.21;69.89
66096;SHT31;53861;53.422;14.530;2022-09-17T08:55:17;17.73;72.92
66096;SHT31;53861;53.422;14.530;2022-09-17T08:57:55;17.30;72.77
66096;SHT31;53861;53.422;14.530;2022-09-17T09:00:29;17.04;76.26
66096;SHT31;53861;53.422;14.530;2022-09-17T09:03:17;16.77;73.82
66096;SHT31;53861;53.422;14.530;2022-09-17T09:05:49;16.79;74.44
66096;SHT31;53861;53.422;14.530;2022-09-17T09:08:26;16.48;75.63
66096;SHT31;53861;53.422;14.530;2022-09-17T09:11:02;16.77;73.92
66096;SHT31;53861;53.422;14.530;2022-09-17T09:13:34;16.82;77.06
66096;SHT31;53861;53.422;14.530;2022-09-17T09:16:11;16.82;74.07
66096;SHT31;53861;53.422;14.530;2022-09-17T09:18:43;16.84;74.52
66096;SHT31;53861;53.422;14.530;2022-09-17T09:21:21;17.04;75.70
66096;SHT31;53861;53.422;14.530;2022-09-17T09:23:53;17.15;74.80
66096;SHT31;53861;53.422;14.530;2022-09-17T09:26:35;17.11;74.52
66096;SHT31;53861;53.422;14.530;2022-09-17T09:29:14;17.01;72.21
66096;SHT31;53861;53.422;14.530;2022-09-17T09:31:58;17.01;74.99
66096;SHT31;53861;53.422;14.530;2022-09-17T09:34:32;17.08;73.51
66096;SHT31;53861;53.422;14.530;2022-09-17T09:37:10;17.22;73.00
66096;SHT31;53861;53.422;14.530;2022-09-17T09:39:39;16.99;72.86
66096;SHT31;53861;53.422;14.530;2022-09-17T09:42:13;17.04;73.47
66096;SHT31;53861;53.422;14.530;2022-09-17T09:44:41;16.87;74.18
66096;SHT31;53861;53.422;14.530;2022-09-17T09:47:28;16.84;74.83
66096;SHT31;53861;53.422;14.530;2022-09-17T09:50:15;17.16;72.91
66096;SHT31;53861;53.422;14.530;2022-09-17T09:52:53;17.33;74.09
66096;SHT31;53861;53.422;14.530;2022-09-17T09:55:47;17.65;70.90
66096;SHT31;53861;53.422;14.530;2022-09-17T09:58:23;17.91;70.65
66096;SHT31;53861;53.422;14.530;2022-09-17T10:00:55;17.87;70.31
66096;SHT31;53861;53.422;14.530;2022-09-17T10:03:26;18.52;72.68
66096;SHT31;53861;53.422;14.530;2022-09-17T10:05:57;19.46;65.55
66096;SHT31;53861;53.422;14.530;2022-09-17T10:08:28;20.04;65.93
66096;SHT31;53861;53.422;14.530;2022-09-17T10:10:59;19.77;64.30
66096;SHT31;53861;53.422;14.530;2022-09-17T10:13:32;20.11;64.25
66096;SHT31;53861;53.422;14.530;2022-09-17T10:16:15;19.85;65.82
66096;SHT31;53861;53.422;14.530;2022-09-17T10:18:44;19.38;66.74
66096;SHT31;53861;53.422;14.530;2022-09-17T10:21:18;18.42;67.90
66096;SHT31;53861;53.422;14.530;2022-09-17T10:23:46;17.98;71.00
66096;SHT31;53861;53.422;14.530;2022-09-17T10:26:25;17.94;68.68
66096;SHT31;53861;53.422;14.530;2022-09-17T10:28:54;18.25;68.09
66096;SHT31;53861;53.422;14.530;2022-09-17T10:31:25;18.59;69.32
66096;SHT31;53861;53.422;14.530;2022-09-17T10:33:57;19.00;69.59
66096;SHT31;53861;53.422;14.530;2022-09-17T10:36:42;19.38;65.20
66096;SHT31;53861;53.422;14.530;2022-09-17T10:39:28;21.31;67.54
66096;SHT31;53861;53.422;14.530;2022-09-17T10:41:58;21.82;60.19
66096;SHT31;53861;53.422;14.530;2022-09-17T10:44:27;21.47;62.78
66096;SHT31;53861;53.422;14.530;2022-09-17T10:47:01;22.13;58.40
66096;SHT31;53861;53.422;14.530;2022-09-17T10:49:38;23.38;55.76
66096;SHT31;53861;53.422;14.530;2022-09-17T10:52:18;22.68;58.39
66096;SHT31;53861;53.422;14.530;2022-09-17T10:58:07;24.75;52.55
66096;SHT31;53861;53.422;14.530;2022-09-17T11:00:49;23.78;57.09
66096;SHT31;53861;53.422;14.530;2022-09-17T11:03:52;23.03;57.82
66096;SHT31;53861;53.422;14.530;2022-09-17T11:06:43;21.85;60.70
66096;SHT31;53861;53.422;14.530;2022-09-17T11:09:25;21.62;61.48
66096;SHT31;53861;53.422;14.530;2022-09-17T11:12:09;20.80;64.65
66096;SHT31;53861;53.422;14.530;2022-09-17T11:14:49;21.79;62.19
66096;SHT31;53861;53.422;14.530;2022-09-17T11:17:55;21.57;63.14
66096;SHT31;53861;53.422;14.530;2022-09-17T11:20:37;20.68;62.74
66096;SHT31;53861;53.422;14.530;2022-09-17T11:23:26;19.85;66.44
66096;SHT31;53861;53.422;14.530;2022-09-17T11:25:58;19.53;66.71
66096;SHT31;53861;53.422;14.530;2022-09-17T11:28:38;19.09;67.52
66096;SHT31;53861;53.422;14.530;2022-09-17T11:31:20;18.30;68.71
66096;SHT31;53861;53.422;14.530;2022-09-17T11:36:46;18.75;66.31
66096;SHT31;53861;53.422;14.530;2022-09-17T11:39:19;19.75;63.87
66096;SHT31;53861;53.422;14.530;2022-09-17T11:41:57;21.86;60.68
66096;SHT31;53861;53.422;14.530;2022-09-17T11:44:32;21.38;64.58
66096;SHT31;53861;53.422;14.530;2022-09-17T11:47:07;20.40;64.12
66096;SHT31;53861;53.422;14.530;2022-09-17T11:49:40;19.97;64.23
66096;SHT31;53861;53.422;14.530;2022-09-17T11:52:13;20.62;61.42
66096;SHT31;53861;53.422;14.530;2022-09-17T11:54:49;21.17;65.58
66096;SHT31;53861;53.422;14.530;2022-09-17T11:57:18;21.06;62.44
66096;SHT31;53861;53.422;14.530;2022-09-17T11:59:51;20.77;64.11
66096;SHT31;53861;53.422;14.530;2022-09-17T12:02:24;20.83;63.74
66096;SHT31;53861;53.422;14.530;2022-09-17T12:05:01;20.62;68.87
66096;SHT31;53861;53.422;14.530;2022-09-17T12:07:39;20.15;68.49
66096;SHT31;53861;53.422;14.530;2022-09-17T12:10:33;20.25;71.32
66096;SHT31;53861;53.422;14.530;2022-09-17T12:13:13;21.14;66.61
66096;SHT31;53861;53.422;14.530;2022-09-17T12:15:45;20.76;67.61
66096;SHT31;53861;53.422;14.530;2022-09-17T12:18:23;20.62;68.69
66096;SHT31;53861;53.422;14.530;2022-09-17T12:20:57;20.21;65.22
66096;SHT31;53861;53.422;14.530;2022-09-17T12:23:35;21.35;62.35
66096;SHT31;53861;53.422;14.530;2022-09-17T12:26:18;21.01;66.10
66096;SHT31;53861;53.422;14.530;2022-09-17T12:28:54;20.56;63.31
66096;SHT31;53861;53.422;14.530;2022-09-17T12:31:31;21.69;57.91
66096;SHT31;53861;53.422;14.530;2022-09-17T12:34:06;23.00;55.68
66096;SHT31;53861;53.422;14.530;2022-09-17T12:36:41;22.39;57.20
66096;SHT31;53861;53.422;14.530;2022-09-17T12:39:54;22.78;52.59
66096;SHT31;53861;53.422;14.530;2022-09-17T12:42:38;20.48;63.15
66096;SHT31;53861;53.422;14.530;2022-09-17T12:45:39;19.07;63.83
66096;SHT31;53861;53.422;14.530;2022-09-17T12:48:41;18.28;67.13
66096;SHT31;53861;53.422;14.530;2022-09-17T12:51:24;18.44;68.33
66096;SHT31;53861;53.422;14.530;2022-09-17T12:54:05;17.89;69.38
66096;SHT31;53861;53.422;14.530;2022-09-17T12:56:46;17.77;70.25
66096;SHT31;53861;53.422;14.530;2022-09-17T12:59:26;17.56;69.99
66096;SHT31;53861;53.422;14.530;2022-09-17T13:01:59;17.39;70.34
66096;SHT31;53861;53.422;14.530;2022-09-17T13:05:00;17.28;70.88
66096;SHT31;53861;53.422;14.530;2022-09-17T13:07:52;17.36;70.63
66096;SHT31;53861;53.422;14.530;2022-09-17T13:10:34;17.76;71.13
66096;SHT31;53861;53.422;14.530;2022-09-17T13:13:15;17.76;73.14
66096;SHT31;53861;53.422;14.530;2022-09-17T13:15:55;18.01;72.07
66096;SHT31;53861;53.422;14.530;2022-09-17T13:18:30;18.18;70.02
66096;SHT31;53861;53.422;14.530;2022-09-17T13:21:05;17.94;70.18
66096;SHT31;53861;53.422;14.530;2022-09-17T13:23:40;18.14;69.39
66096;SHT31;53861;53.422;14.530;2022-09-17T13:26:08;18.37;69.27
66096;SHT31;53861;53.422;14.530;2022-09-17T13:28:39;18.37;69.13
66096;SHT31;53861;53.422;14.530;2022-09-17T13:31:08;18.89;66.44
66096;SHT31;53861;53.422;14.530;2022-09-17T13:33:55;19.26;67.45
66096;SHT31;53861;53.422;14.530;2022-09-17T13:36:49;19.63;66.84
66096;SHT31;53861;53.422;14.530;2022-09-17T13:39:40;19.91;63.20
66096;SHT31;53861;53.422;14.530;2022-09-17T13:42:18;19.24;62.41
66096;SHT31;53861;53.422;14.530;2022-09-17T13:44:52;18.66;67.67
66096;SHT31;53861;53.422;14.530;2022-09-17T13:47:30;18.30;68.21
66096;SHT31;53861;53.422;14.530;2022-09-17T13:50:03;18.15;67.03
66096;SHT31;53861;53.422;14.530;2022-09-17T13:52:37;17.56;71.30
66096;SHT31;53861;53.422;14.530;2022-09-17T13:55:08;17.71;68.60
66096;SHT31;53861;53.422;14.530;2022-09-17T13:57:59;17.39;69.08
66096;SHT31;53861;53.422;14.530;2022-09-17T14:00:50;17.28;68.26
66096;SHT31;53861;53.422;14.530;2022-09-17T14:03:51;17.33;68.73
66096;SHT31;53861;53.422;14.530;2022-09-17T14:06:48;17.09;68.87
66096;SHT31;53861;53.422;14.530;2022-09-17T14:09:32;17.08;68.08
66096;SHT31;53861;53.422;14.530;2022-09-17T14:12:27;17.14;68.75
66096;SHT31;53861;53.422;14.530;2022-09-17T14:18:37;16.89;70.70
66096;SHT31;53861;53.422;14.530;2022-09-17T14:21:17;16.89;70.77
66096;SHT31;53861;53.422;14.530;2022-09-17T14:23:53;16.91;68.27
66096;SHT31;53861;53.422;14.530;2022-09-17T14:26:32;16.87;71.84
66096;SHT31;53861;53.422;14.530;2022-09-17T14:29:06;16.78;68.18
66096;SHT31;53861;53.422;14.530;2022-09-17T14:31:37;16.79;70.76
66096;SHT31;53861;53.422;14.530;2022-09-17T14:34:05;16.72;69.49
66096;SHT31;53861;53.422;14.530;2022-09-17T14:36:37;16.67;71.73
66096;SHT31;53861;53.422;14.530;2022-09-17T14:39:12;16.99;68.03
66096;SHT31;53861;53.422;14.530;2022-09-17T14:41:43;17.15;67.39
66096;SHT31;53861;53.422;14.530;2022-09-17T14:44:13;17.14;68.32
66096;SHT31;53861;53.422;14.530;2022-09-17T14:46:49;16.95;70.66
66096;SHT31;53861;53.422;14.530;2022-09-17T14:49:19;16.68;70.10
66096;SHT31;53861;53.422;14.530;2022-09-17T14:51:49;16.71;71.95
66096;SHT31;53861;53.422;14.530;2022-09-17T14:54:23;16.65;68.99
66096;SHT31;53861;53.422;14.530;2022-09-17T14:57:00;16.56;70.05
66096;SHT31;53861;53.422;14.530;2022-09-17T14:59:44;16.37;70.93
66096;SHT31;53861;53.422;14.530;2022-09-17T15:02:33;16.34;74.03
66096;SHT31;53861;53.422;14.530;2022-09-17T15:05:11;16.37;71.12
66096;SHT31;53861;53.422;14.530;2022-09-17T15:07:45;16.28;72.43
66096;SHT31;53861;53.422;14.530;2022-09-17T15:10:14;16.36;71.51
66096;SHT31;53861;53.422;14.530;2022-09-17T15:12:43;16.34;68.37
66096;SHT31;53861;53.422;14.530;2022-09-17T15:15:17;16.37;67.48
66096;SHT31;53861;53.422;14.530;2022-09-17T15:17:46;16.47;66.14
66096;SHT31;53861;53.422;14.530;2022-09-17T15:20:17;16.53;70.50
66096;SHT31;53861;53.422;14.530;2022-09-17T15:22:52;16.33;68.66
66096;SHT31;53861;53.422;14.530;2022-09-17T15:25:21;16.31;70.57
66096;SHT31;53861;53.422;14.530;2022-09-17T15:27:52;16.24;67.51
66096;SHT31;53861;53.422;14.530;2022-09-17T15:30:22;16.34;68.37
66096;SHT31;53861;53.422;14.530;2022-09-17T15:32:51;16.16;67.43
66096;SHT31;53861;53.422;14.530;2022-09-17T15:35:24;16.14;66.69
66096;SHT31;53861;53.422;14.530;2022-09-17T15:37:55;16.24;67.47
66096;SHT31;53861;53.422;14.530;2022-09-17T15:40:26;16.16;70.22
66096;SHT31;53861;53.422;14.530;2022-09-17T15:43:01;16.07;72.55
66096;SHT31;53861;53.422;14.530;2022-09-17T15:45:30;15.97;71.75
66096;SHT31;53861;53.422;14.530;2022-09-17T15:47:59;15.90;73.22
66096;SHT31;53861;53.422;14.530;2022-09-17T15:50:27;15.82;74.02
66096;SHT31;53861;53.422;14.530;2022-09-17T15:53:11;15.75;74.96
66096;SHT31;53861;53.422;14.530;2022-09-17T15:55:40;15.81;75.63
66096;SHT31;53861;53.422;14.530;2022-09-17T15:58:22;15.76;74.93
66096;SHT31;53861;53.422;14.530;2022-09-17T16:04:15;15.69;75.14
66096;SHT31;53861;53.422;14.530;2022-09-17T16:06:48;15.63;76.20
66096;SHT31;53861;53.422;14.530;2022-09-17T16:09:39;15.62;70.81